Time,TemperatureF,DewpointF,PressureIn,WindDirection,WindDirectionDegrees,WindSpeedMPH,WindSpeedGustMPH,Humidity,HourlyPrecipIn,Conditions,Clouds,dailyrainin,SoftwareType,DateUTC
2013-11-10 00:27:00,36.0,33.0,30.30,North,359,2.0,4.0,89,0.00,,,0.00,weatherlink.com 1.10,2013-11-10 05:27:00,
2013-11-10 00:37:00,35.9,33.0,30.30,NNE,19,3.0,4.0,89,0.00,,,0.00,weatherlink.com 1.10,2013-11-10 05:37:00,
2013-11-10 00:52:00,35.9,33.0,30.30,NNW,335,1.0,4.0,89,0.00,,,0.00,weatherlink.com 1.10,2013-11-10 05:52:00,
2013-11-10 01:07:00,35.8,33.0,30.29,NW,322,1.0,4.0,88,0.00,,,0.00,weatherlink.com 1.10,2013-11-10 06:07:00,
2013-11-10 01:22:00,35.6,32.0,30.29,NW,324,0.0,3.0,87,0.00,,,0.00,weatherlink.com 1.10,2013-11-10 06:22:00,
2013-11-10 01:37:00,36.1,32.0,30.29,NE,37,4.0,6.0,86,0.00,,,0.00,weatherlink.com 1.10,2013-11-10 06:37:00,
2013-11-10 01:52:00,35.8,32.0,30.29,North,355,4.0,8.0,86,0.00,,,0.00,weatherlink.com 1.10,2013-11-10 06:52:00,
2013-11-10 02:07:00,35.4,32.0,30.29,North,355,8.0,9.0,87,0.00,,,0.00,weatherlink.com 1.10,2013-11-10 07:07:00,
2013-11-10 02:22:00,36.1,32.0,30.29,NNW,342,8.0,9.0,85,0.00,,,0.00,weatherlink.com 1.10,2013-11-10 07:22:00,
2013-11-10 02:37:00,36.4,33.0,30.29,North,4,6.0,9.0,86,0.00,,,0.00,weatherlink.com 1.10,2013-11-10 07:37:00,
2013-11-10 02:52:00,36.3,32.0,30.29,NNE,29,5.0,8.0,85,0.00,,,0.00,weatherlink.com 1.10,2013-11-10 07:52:00,
2013-11-10 03:07:00,36.3,33.0,30.29,NNE,14,4.0,9.0,87,0.00,,,0.00,weatherlink.com 1.10,2013-11-10 08:07:00,
2013-11-10 03:22:00,36.8,33.0,30.29,North,358,6.0,9.0,85,0.00,,,0.00,weatherlink.com 1.10,2013-11-10 08:22:00,
2013-11-10 03:37:00,37.7,33.0,30.27,NNE,19,6.0,10.0,83,0.00,,,0.00,weatherlink.com 1.10,2013-11-10 08:37:00,
2013-11-10 03:52:00,40.5,33.0,30.28,North,9,11.0,11.0,74,0.00,,,0.00,weatherlink.com 1.10,2013-11-10 08:52:00,
2013-11-10 04:07:00,41.9,32.0,30.28,NNE,12,9.0,12.0,68,0.00,,,0.00,weatherlink.com 1.10,2013-11-10 09:07:00,
2013-11-10 04:22:00,41.1,33.0,30.28,North,1,11.0,14.0,72,0.00,,,0.00,weatherlink.com 1.10,2013-11-10 09:22:00,
2013-11-10 04:37:00,40.6,33.0,30.29,North,353,11.0,12.0,73,0.00,,,0.00,weatherlink.com 1.10,2013-11-10 09:37:00,
2013-11-10 04:52:00,39.9,33.0,30.29,NNW,340,9.0,12.0,75,0.00,,,0.00,weatherlink.com 1.10,2013-11-10 09:52:00,
2013-11-10 05:07:00,39.7,32.0,30.30,NNW,336,9.0,13.0,75,0.00,,,0.00,weatherlink.com 1.10,2013-11-10 10:07:00,
2013-11-10 05:22:00,40.8,32.0,30.30,NNW,335,7.0,12.0,72,0.00,,,0.00,weatherlink.com 1.10,2013-11-10 10:22:00,
2013-11-10 05:37:00,41.0,33.0,30.30,NNE,16,10.0,12.0,72,0.00,,,0.00,weatherlink.com 1.10,2013-11-10 10:37:00,
2013-11-10 05:52:00,40.6,33.0,30.31,North,354,11.0,12.0,74,0.00,,,0.00,weatherlink.com 1.10,2013-11-10 10:52:00,
2013-11-10 06:07:00,39.6,33.0,30.31,NNW,335,8.0,12.0,76,0.00,,,0.00,weatherlink.com 1.10,2013-11-10 11:07:00,
2013-11-10 06:23:00,38.4,33.0,30.32,North,349,6.0,10.0,80,0.00,,,0.00,weatherlink.com 1.10,2013-11-10 11:23:00,
2013-11-10 06:38:00,36.4,32.0,30.32,North,8,6.0,7.0,85,0.00,,,0.00,weatherlink.com 1.10,2013-11-10 11:38:00,
2013-11-10 06:54:00,35.2,32.0,30.32,NNW,340,7.0,8.0,88,0.00,,,0.00,weatherlink.com 1.10,2013-11-10 11:54:00,
2013-11-10 07:09:00,34.8,32.0,30.32,NNW,348,5.0,8.0,89,0.00,,,0.00,weatherlink.com 1.10,2013-11-10 12:09:00,
2013-11-10 07:23:00,34.5,32.0,30.33,NNE,14,7.0,8.0,90,0.00,,,0.00,weatherlink.com 1.10,2013-11-10 12:23:00,
2013-11-10 07:40:00,34.5,32.0,30.33,North,359,5.0,8.0,89,0.00,,,0.00,weatherlink.com 1.10,2013-11-10 12:40:00,
2013-11-10 07:53:00,34.9,31.0,30.34,North,11,7.0,7.0,87,0.00,,,0.00,weatherlink.com 1.10,2013-11-10 12:53:00,
2013-11-10 08:08:00,36.0,31.0,30.34,North,355,6.0,7.0,83,0.00,,,0.00,weatherlink.com 1.10,2013-11-10 13:08:00,
2013-11-10 08:23:00,38.4,32.0,30.34,North,5,7.0,7.0,78,0.00,,,0.00,weatherlink.com 1.10,2013-11-10 13:23:00,
2013-11-10 08:38:00,40.8,33.0,30.34,North,356,7.0,9.0,73,0.00,,,0.00,weatherlink.com 1.10,2013-11-10 13:38:00,
2013-11-10 08:53:00,42.6,34.0,30.35,NNE,13,4.0,8.0,71,0.00,,,0.00,weatherlink.com 1.10,2013-11-10 13:53:00,
2013-11-10 09:08:00,44.3,34.0,30.35,NNW,345,2.0,6.0,68,0.00,,,0.00,weatherlink.com 1.10,2013-11-10 14:08:00,
2013-11-10 09:23:00,46.3,35.0,30.35,NW,318,0.0,4.0,64,0.00,,,0.00,weatherlink.com 1.10,2013-11-10 14:23:00,
2013-11-10 09:38:00,48.3,36.0,30.36,WNW,293,0.0,3.0,62,0.00,,,0.00,weatherlink.com 1.10,2013-11-10 14:38:00,
2013-11-10 09:53:00,50.9,36.0,30.35,WSW,239,0.0,3.0,58,0.00,,,0.00,weatherlink.com 1.10,2013-11-10 14:53:00,
2013-11-10 10:08:00,51.8,37.0,30.34,North,3,11.0,17.0,57,0.00,,,0.00,weatherlink.com 1.10,2013-11-10 15:08:00,
2013-11-10 10:23:00,52.8,38.0,30.34,NNE,28,9.0,14.0,57,0.00,,,0.00,weatherlink.com 1.10,2013-11-10 15:23:00,
2013-11-10 10:38:00,53.9,38.0,30.34,NNW,338,8.0,15.0,56,0.00,,,0.00,weatherlink.com 1.10,2013-11-10 15:38:00,
2013-11-10 10:53:00,54.9,39.0,30.33,NNE,14,12.0,16.0,55,0.00,,,0.00,weatherlink.com 1.10,2013-11-10 15:53:00,
2013-11-10 11:08:00,56.2,40.0,30.32,NW,321,5.0,12.0,55,0.00,,,0.00,weatherlink.com 1.10,2013-11-10 16:08:00,
2013-11-10 11:23:00,56.9,40.0,30.32,NNW,345,13.0,16.0,53,0.00,,,0.00,weatherlink.com 1.10,2013-11-10 16:23:00,
2013-11-10 11:38:00,57.2,40.0,30.31,North,1,4.0,18.0,53,0.00,,,0.00,weatherlink.com 1.10,2013-11-10 16:38:00,
2013-11-10 11:53:00,58.0,40.0,30.30,North,354,8.0,15.0,52,0.00,,,0.00,weatherlink.com 1.10,2013-11-10 16:53:00,
2013-11-10 12:08:00,58.3,40.0,30.29,North,8,13.0,17.0,50,0.00,,,0.00,weatherlink.com 1.10,2013-11-10 17:08:00,
2013-11-10 12:23:00,59.1,39.0,30.28,North,3,9.0,19.0,48,0.00,,,0.00,weatherlink.com 1.10,2013-11-10 17:23:00,
2013-11-10 12:39:00,59.7,38.0,30.27,North,352,18.0,19.0,45,0.00,,,0.00,weatherlink.com 1.10,2013-11-10 17:39:00,
2013-11-10 12:54:00,60.1,38.0,30.27,NE,36,16.0,22.0,44,0.00,,,0.00,weatherlink.com 1.10,2013-11-10 17:54:00,
2013-11-10 13:09:00,60.9,37.0,30.26,North,10,22.0,22.0,42,0.00,,,0.00,weatherlink.com 1.10,2013-11-10 18:09:00,
2013-11-10 13:24:00,61.1,36.0,30.26,NNE,27,11.0,23.0,39,0.00,,,0.00,weatherlink.com 1.10,2013-11-10 18:24:00,
2013-11-10 13:39:00,61.3,35.0,30.25,NNW,342,12.0,24.0,37,0.00,,,0.00,weatherlink.com 1.10,2013-11-10 18:39:00,
2013-11-10 13:54:00,61.5,33.0,30.24,NNW,339,11.0,25.0,35,0.00,,,0.00,weatherlink.com 1.10,2013-11-10 18:54:00,
2013-11-10 14:09:00,62.1,35.0,30.24,NNW,333,9.0,19.0,36,0.00,,,0.00,weatherlink.com 1.10,2013-11-10 19:09:00,
2013-11-10 14:24:00,61.9,33.0,30.24,NNW,348,10.0,25.0,34,0.00,,,0.00,weatherlink.com 1.10,2013-11-10 19:24:00,
2013-11-10 14:39:00,62.5,34.0,30.23,NNW,328,7.0,23.0,34,0.00,,,0.00,weatherlink.com 1.10,2013-11-10 19:39:00,
2013-11-10 14:54:00,62.2,34.0,30.24,NNW,345,10.0,20.0,35,0.00,,,0.00,weatherlink.com 1.10,2013-11-10 19:54:00,
2013-11-10 15:09:00,61.8,33.0,30.23,North,5,18.0,24.0,34,0.00,,,0.00,weatherlink.com 1.10,2013-11-10 20:09:00,
2013-11-10 15:26:00,61.3,33.0,30.24,North,354,17.0,26.0,34,0.00,,,0.00,weatherlink.com 1.10,2013-11-10 20:26:00,
2013-11-10 15:42:00,61.0,34.0,30.24,NNE,16,15.0,32.0,36,0.00,,,0.00,weatherlink.com 1.10,2013-11-10 20:42:00,
2013-11-10 15:54:00,60.5,35.0,30.24,North,351,14.0,24.0,38,0.00,,,0.00,weatherlink.com 1.10,2013-11-10 20:54:00,
2013-11-10 16:09:00,60.3,34.0,30.25,North,356,13.0,22.0,38,0.00,,,0.00,weatherlink.com 1.10,2013-11-10 21:09:00,
2013-11-10 16:24:00,59.7,35.0,30.25,NW,326,6.0,28.0,40,0.00,,,0.00,weatherlink.com 1.10,2013-11-10 21:24:00,
2013-11-10 16:39:00,59.1,35.0,30.25,North,352,13.0,21.0,41,0.00,,,0.00,weatherlink.com 1.10,2013-11-10 21:39:00,
2013-11-10 16:54:00,58.2,35.0,30.26,NNW,333,12.0,21.0,42,0.00,,,0.00,weatherlink.com 1.10,2013-11-10 21:54:00,
2013-11-10 17:09:00,57.5,36.0,30.26,North,349,11.0,18.0,44,0.00,,,0.00,weatherlink.com 1.10,2013-11-10 22:09:00,
2013-11-10 17:24:00,56.8,35.0,30.26,NNW,338,10.0,17.0,45,0.00,,,0.00,weatherlink.com 1.10,2013-11-10 22:24:00,
2013-11-10 17:39:00,56.3,36.0,30.27,NNW,338,6.0,13.0,46,0.00,,,0.00,weatherlink.com 1.10,2013-11-10 22:39:00,
2013-11-10 17:54:00,55.7,36.0,30.27,NNE,16,3.0,10.0,47,0.00,,,0.00,weatherlink.com 1.10,2013-11-10 22:54:00,
2013-11-10 18:24:00,53.2,36.0,30.28,NW,319,0.0,3.0,53,0.00,,,0.00,weatherlink.com 1.10,2013-11-10 23:24:00,
2013-11-10 18:39:00,51.9,38.0,30.28,NNW,340,0.0,2.0,59,0.00,,,0.00,weatherlink.com 1.10,2013-11-10 23:39:00,
2013-11-10 18:54:00,49.8,39.0,30.28,NNW,333,0.0,1.0,66,0.00,,,0.00,weatherlink.com 1.10,2013-11-10 23:54:00,
2013-11-10 19:09:00,47.6,38.0,30.29,NNW,328,1.0,2.0,70,0.00,,,0.00,weatherlink.com 1.10,2013-11-11 00:09:00,
2013-11-10 19:24:00,46.9,39.0,30.29,North,5,1.0,3.0,73,0.00,,,0.00,weatherlink.com 1.10,2013-11-11 00:24:00,
2013-11-10 19:39:00,46.1,38.0,30.28,NW,323,1.0,4.0,73,0.00,,,0.00,weatherlink.com 1.10,2013-11-11 00:39:00,
2013-11-10 19:54:00,44.4,37.0,30.29,SSW,207,2.0,2.0,76,0.00,,,0.00,weatherlink.com 1.10,2013-11-11 00:54:00,
2013-11-10 20:09:00,43.2,36.0,30.29,SSE,166,1.0,3.0,76,0.00,,,0.00,weatherlink.com 1.10,2013-11-11 01:09:00,
2013-11-10 20:24:00,42.3,37.0,30.29,SSW,211,0.0,2.0,81,0.00,,,0.00,weatherlink.com 1.10,2013-11-11 01:24:00,
2013-11-10 20:39:00,41.9,37.0,30.30,NNW,341,0.0,1.0,83,0.00,,,0.00,weatherlink.com 1.10,2013-11-11 01:39:00,
2013-11-10 20:54:00,44.2,37.0,30.30,North,354,4.0,5.0,75,0.00,,,0.00,weatherlink.com 1.10,2013-11-11 01:54:00,
2013-11-10 21:09:00,46.0,35.0,30.30,North,8,6.0,7.0,66,0.00,,,0.00,weatherlink.com 1.10,2013-11-11 02:09:00,
2013-11-10 21:24:00,45.4,35.0,30.30,NNW,343,3.0,7.0,67,0.00,,,0.00,weatherlink.com 1.10,2013-11-11 02:24:00,
2013-11-10 21:39:00,46.2,33.0,30.30,North,8,5.0,8.0,61,0.00,,,0.00,weatherlink.com 1.10,2013-11-11 02:39:00,
2013-11-10 21:54:00,46.7,32.0,30.30,NNW,333,4.0,8.0,58,0.00,,,0.00,weatherlink.com 1.10,2013-11-11 02:54:00,
2013-11-10 22:09:00,45.9,34.0,30.31,North,3,3.0,6.0,63,0.00,,,0.00,weatherlink.com 1.10,2013-11-11 03:09:00,
2013-11-10 22:25:00,43.5,35.0,30.31,NNW,328,2.0,3.0,73,0.00,,,0.00,weatherlink.com 1.10,2013-11-11 03:25:00,
2013-11-10 22:39:00,43.7,33.0,30.31,North,349,2.0,4.0,65,0.00,,,0.00,weatherlink.com 1.10,2013-11-11 03:39:00,
2013-11-10 22:54:00,44.1,31.0,30.32,NNW,333,1.0,6.0,61,0.00,,,0.00,weatherlink.com 1.10,2013-11-11 03:54:00,
2013-11-10 23:09:00,42.1,33.0,30.32,East,97,0.0,2.0,70,0.00,,,0.00,weatherlink.com 1.10,2013-11-11 04:09:00,
2013-11-10 23:27:00,40.9,33.0,30.32,North,1,0.0,2.0,72,0.00,,,0.00,weatherlink.com 1.10,2013-11-11 04:27:00,
2013-11-10 23:39:00,40.4,33.0,30.32,North,356,2.0,3.0,74,0.00,,,0.00,weatherlink.com 1.10,2013-11-11 04:39:00,
2013-11-10 23:54:00,39.3,32.0,30.32,North,10,0.0,1.0,75,0.00,,,0.00,weatherlink.com 1.10,2013-11-11 04:54:00,